Time;durP1;ratioP1;P1;durP2;ratioP2;P2;SDS_P1;SDS_P2;PMS_P1;PMS_P2;Temp;Humidity;BMP_temperature;BMP_pressure;BME280_temperature;BME280_humidity;BME280_pressure;Samples;Min_cycle;Max_cycle;Signal;HPM_P1;HPM_P2
2023/12/20 00:01:14;;;;;;;34.58;12.18;;;;;;;4.13;100.00;100505.13;7399256;19;20066;-71
2023/12/20 00:03:42;;;;;;;33.38;12.95;;;;;;;4.11;100.00;100502.53;7397805;19;20010;-72
2023/12/20 00:06:11;;;;;;;35.13;11.68;;;;;;;4.13;100.00;100500.78;7398988;19;20397;-72
2023/12/20 00:08:40;;;;;;;32.03;11.52;;;;;;;4.13;100.00;100494.75;7397099;19;20023;-72
2023/12/20 00:11:08;;;;;;;32.35;12.57;;;;;;;4.13;100.00;100497.34;7398998;19;20014;-72
2023/12/20 00:13:39;;;;;;;37.60;13.82;;;;;;;4.14;100.00;100499.09;7397672;19;20027;-71
2023/12/20 00:16:08;;;;;;;31.98;12.00;;;;;;;4.13;100.00;100474.84;7396536;19;20007;-72
2023/12/20 00:18:37;;;;;;;29.52;11.73;;;;;;;4.09;100.00;100473.09;7396374;19;20007;-72
2023/12/20 00:21:12;;;;;;;33.35;13.10;;;;;;;4.12;100.00;100475.72;7398684;19;20014;-72
2023/12/20 00:23:41;;;;;;;30.92;12.07;;;;;;;4.12;100.00;100477.44;7397573;19;20010;-72
2023/12/20 00:26:09;;;;;;;36.25;11.85;;;;;;;4.12;100.00;100487.81;7398145;19;20014;-72
2023/12/20 00:28:40;;;;;;;31.95;11.15;;;;;;;4.13;100.00;100479.16;7396467;19;20070;-72
2023/12/20 00:31:09;;;;;;;34.22;11.95;;;;;;;4.12;100.00;100474.84;7396655;19;20030;-72
2023/12/20 00:33:37;;;;;;;33.80;11.77;;;;;;;4.13;100.00;100473.97;7397111;19;20035;-71
2023/12/20 00:36:07;;;;;;;29.55;11.57;;;;;;;4.13;100.00;100476.56;7397770;19;20023;-72
2023/12/20 00:38:35;;;;;;;34.38;13.48;;;;;;;4.13;100.00;100473.97;7398123;19;20010;-72
2023/12/20 00:41:04;;;;;;;33.38;12.32;;;;;;;4.12;100.00;100467.94;7397574;19;20364;-72
2023/12/20 00:43:32;;;;;;;36.80;12.93;;;;;;;4.14;100.00;100471.38;7396349;19;20066;-72
2023/12/20 00:46:03;;;;;;;34.40;13.18;;;;;;;4.14;100.00;100463.59;7397530;19;20020;-72
2023/12/20 00:48:32;;;;;;;36.53;12.85;;;;;;;4.15;100.00;100467.06;7396726;19;20014;-71
2023/12/20 00:51:00;;;;;;;36.42;13.10;;;;;;;4.15;100.00;100464.47;7395844;19;20032;-71
2023/12/20 00:53:29;;;;;;;41.90;13.45;;;;;;;4.16;100.00;100461.00;7396695;19;20399;-71
2023/12/20 00:55:58;;;;;;;41.75;14.55;;;;;;;4.16;100.00;100459.28;7397424;19;20481;-72
2023/12/20 00:58:27;;;;;;;40.05;13.10;;;;;;;4.17;100.00;100457.53;7397116;19;20006;-71
2023/12/20 01:00:56;;;;;;;38.90;14.30;;;;;;;4.18;100.00;100461.88;7396845;19;20024;-72
2023/12/20 01:03:27;;;;;;;40.45;14.38;;;;;;;4.19;100.00;100463.59;7395897;19;20015;-72
2023/12/20 01:05:55;;;;;;;39.75;15.07;;;;;;;4.18;100.00;100464.47;7396824;19;20486;-71
2023/12/20 01:08:25;;;;;;;36.65;13.95;;;;;;;4.19;100.00;100458.41;7395582;19;20011;-72
2023/12/20 01:10:53;;;;;;;46.28;16.90;;;;;;;4.20;100.00;100465.34;7394932;19;20387;-72
2023/12/20 01:13:22;;;;;;;46.35;15.90;;;;;;;4.19;100.00;100461.00;7395618;19;20007;-71
2023/12/20 01:16:13;;;;;;;44.65;17.10;;;;;;;4.20;100.00;100460.13;7395829;19;20092;-72
2023/12/20 01:18:44;;;;;;;49.22;17.80;;;;;;;4.20;100.00;100458.41;7396375;19;20086;-70
2023/12/20 01:21:12;;;;;;;52.28;19.23;;;;;;;4.20;100.00;100463.59;7397107;19;20078;-71
2023/12/20 01:23:41;;;;;;;46.60;17.42;;;;;;;4.20;100.00;100465.34;7395185;19;20098;-71
2023/12/20 01:26:10;;;;;;;49.90;18.35;;;;;;;4.21;100.00;100472.25;7399483;19;20017;-72
2023/12/20 01:28:51;;;;;;;53.03;18.30;;;;;;;4.20;100.00;100457.53;7396866;19;20518;-72
2023/12/20 01:31:20;;;;;;;56.28;19.70;;;;;;;4.20;100.00;100453.19;7397055;19;20102;-72
2023/12/20 01:33:51;;;;;;;62.38;20.35;;;;;;;4.20;100.00;100458.41;7395163;19;20020;-72
2023/12/20 01:36:19;;;;;;;64.95;21.10;;;;;;;4.21;100.00;100459.28;7396674;19;20029;-72
2023/12/20 01:38:48;;;;;;;59.10;18.80;;;;;;;4.21;100.00;100454.94;7394199;19;20010;-71
2023/12/20 01:41:16;;;;;;;58.95;20.77;;;;;;;4.21;100.00;100456.69;7396047;19;20014;-71
2023/12/20 01:43:45;;;;;;;65.70;23.35;;;;;;;4.22;100.00;100458.38;7394869;19;20105;-71
2023/12/20 01:46:14;;;;;;;71.80;26.23;;;;;;;4.23;100.00;100458.41;7395497;19;20014;-71
2023/12/20 01:48:43;;;;;;;67.00;22.92;;;;;;;4.23;100.00;100445.44;7394731;19;20193;-68
2023/12/20 01:51:14;;;;;;;61.10;22.77;;;;;;;4.25;100.00;100445.41;7395810;19;20371;-67
2023/12/20 01:53:44;;;;;;;66.30;22.35;;;;;;;4.25;100.00;100435.03;7394727;19;20014;-67
2023/12/20 01:56:14;;;;;;;63.85;21.95;;;;;;;4.26;100.00;100443.69;7395271;19;20541;-67
2023/12/20 01:58:47;;;;;;;79.53;26.85;;;;;;;4.26;100.00;100435.88;7395552;19;20035;-67
2023/12/20 02:01:16;;;;;;;61.33;22.05;;;;;;;4.26;100.00;100438.47;7395786;19;20027;-67
2023/12/20 02:03:44;;;;;;;61.03;21.45;;;;;;;4.26;100.00;100436.78;7394237;19;20027;-67
2023/12/20 02:06:16;;;;;;;56.90;19.38;;;;;;;4.28;100.00;100442.81;7393662;19;20011;-72
2023/12/20 02:08:44;;;;;;;57.38;19.73;;;;;;;4.28;100.00;100432.41;7394658;19;20027;-69
2023/12/20 02:11:13;;;;;;;56.00;19.80;;;;;;;4.29;100.00;100428.97;7393561;19;20024;-69
2023/12/20 02:13:41;;;;;;;53.10;17.50;;;;;;;4.30;100.00;100420.31;7393972;19;20014;-70
2023/12/20 02:16:10;;;;;;;51.08;18.13;;;;;;;4.33;100.00;100422.03;7395219;19;20007;-70
2023/12/20 02:18:39;;;;;;;58.85;18.45;;;;;;;4.32;100.00;100426.38;7395094;19;20024;-70
2023/12/20 02:21:07;;;;;;;52.30;16.80;;;;;;;4.34;100.00;100429.81;7394681;19;20549;-70
2023/12/20 02:23:39;;;;;;;49.50;16.50;;;;;;;4.36;100.00;100427.22;7392973;19;20031;-70
2023/12/20 02:26:08;;;;;;;46.45;15.75;;;;;;;4.35;100.00;100425.50;7395266;19;20020;-70
2023/12/20 02:28:37;;;;;;;44.17;15.40;;;;;;;4.36;100.00;100432.41;7393857;19;20494;-70
2023/12/20 02:31:06;;;;;;;42.70;14.68;;;;;;;4.33;100.00;100420.28;7402303;19;20094;-70
2023/12/20 02:33:34;;;;;;;46.00;15.25;;;;;;;4.35;100.00;100423.75;7400596;19;20018;-70
2023/12/20 02:36:02;;;;;;;42.35;14.77;;;;;;;4.36;100.00;100420.31;7399380;19;20010;-69
2023/12/20 02:38:31;;;;;;;37.33;13.93;;;;;;;4.37;100.00;100419.44;7402162;19;20083;-70
2023/12/20 02:41:02;;;;;;;33.17;13.32;;;;;;;4.36;100.00;100416.81;7401617;19;20017;-69
2023/12/20 02:43:31;;;;;;;37.47;14.15;;;;;;;4.33;100.00;100402.09;7400554;19;20021;-70
2023/12/20 02:46:00;;;;;;;33.95;13.20;;;;;;;4.37;100.00;100413.38;7401438;19;20073;-70
2023/12/20 02:48:28;;;;;;;35.83;14.02;;;;;;;4.38;100.00;100409.91;7400576;19;20015;-70
2023/12/20 02:50:57;;;;;;;33.58;12.73;;;;;;;4.38;100.00;100404.72;7398622;19;20420;-70
2023/12/20 02:53:26;;;;;;;38.53;13.75;;;;;;;4.37;100.00;100409.06;7398418;19;20473;-70
2023/12/20 02:55:54;;;;;;;39.70;14.02;;;;;;;4.38;100.00;100409.91;7401071;19;20014;-70
2023/12/20 02:58:25;;;;;;;40.15;14.93;;;;;;;4.37;100.00;100409.06;7402493;19;20010;-70
2023/12/20 03:00:54;;;;;;;34.63;13.63;;;;;;;4.37;100.00;100406.47;7405063;19;20032;-70
2023/12/20 03:03:22;;;;;;;36.08;14.35;;;;;;;4.38;100.00;100407.31;7401809;19;20491;-70
2023/12/20 03:05:50;;;;;;;42.78;14.70;;;;;;;4.38;100.00;100412.50;7401543;19;20074;-70
2023/12/20 03:08:19;;;;;;;39.95;15.18;;;;;;;4.39;100.00;100424.63;7400363;19;20010;-70
2023/12/20 03:10:47;;;;;;;35.90;13.70;;;;;;;4.39;100.00;100419.44;7400972;19;20018;-70
2023/12/20 03:13:16;;;;;;;38.33;13.73;;;;;;;4.39;100.00;100422.03;7399679;19;20040;-70
2023/12/20 03:15:47;;;;;;;34.55;13.32;;;;;;;4.39;100.00;100422.88;7400654;19;20090;-70
2023/12/20 03:18:16;;;;;;;41.45;14.88;;;;;;;4.39;100.00;100427.22;7400886;19;20014;-70
2023/12/20 03:20:44;;;;;;;41.05;14.05;;;;;;;4.38;100.00;100435.88;7400658;19;20070;-70
2023/12/20 03:23:13;;;;;;;34.90;14.25;;;;;;;4.40;100.00;100435.00;7399211;19;20512;-70
2023/12/20 03:25:41;;;;;;;34.72;14.00;;;;;;;4.40;100.00;100437.59;7400553;19;20018;-70
2023/12/20 03:28:10;;;;;;;39.95;14.15;;;;;;;4.42;100.00;100428.94;7399340;19;20432;-70
2023/12/20 03:30:38;;;;;;;32.80;14.23;;;;;;;4.43;100.00;100422.91;7400558;19;20079;-70
2023/12/20 03:33:09;;;;;;;38.83;14.05;;;;;;;4.44;100.00;100429.81;7399294;19;20031;-70
2023/12/20 03:35:38;;;;;;;35.15;13.93;;;;;;;4.44;100.00;100422.03;7400493;19;20095;-70
2023/12/20 03:38:06;;;;;;;37.65;13.73;;;;;;;4.44;100.00;100435.88;7399573;19;20023;-70
2023/12/20 03:40:35;;;;;;;41.00;16.00;;;;;;;4.46;100.00;100446.25;7396820;19;20034;-70
2023/12/20 03:43:03;;;;;;;39.90;15.10;;;;;;;4.48;100.00;100439.34;7399078;19;20073;-70
2023/12/20 03:45:32;;;;;;;34.85;14.15;;;;;;;4.50;100.00;100429.78;7397556;19;20580;-70
2023/12/20 03:48:00;;;;;;;37.38;14.20;;;;;;;4.51;100.00;100439.31;7399885;19;20051;-70
2023/12/20 03:50:31;;;;;;;36.10;14.02;;;;;;;4.51;100.00;100436.72;7397133;19;20510;-70
2023/12/20 03:53:00;;;;;;;34.90;14.07;;;;;;;4.54;100.00;100434.13;7398637;19;20478;-70
2023/12/20 03:55:28;;;;;;;35.72;14.45;;;;;;;4.55;100.00;100435.88;7399489;19;20028;-70
2023/12/20 03:57:57;;;;;;;31.42;13.82;;;;;;;4.57;100.00;100431.50;7399397;19;20030;-70
2023/12/20 04:00:25;;;;;;;32.45;13.98;;;;;;;4.59;100.00;100436.69;7399357;19;20027;-70
2023/12/20 04:02:54;;;;;;;31.30;13.00;;;;;;;4.59;100.00;100436.69;7398316;19;20509;-69
2023/12/20 04:05:22;;;;;;;31.58;13.68;;;;;;;4.58;100.00;100430.66;7399071;19;20027;-71
2023/12/20 04:07:53;;;;;;;31.75;13.45;;;;;;;4.60;100.00;100426.34;7396857;19;20007;-70
2023/12/20 04:10:22;;;;;;;32.55;12.45;;;;;;;4.61;100.00;100430.63;7396903;19;20014;-71
2023/12/20 04:12:50;;;;;;;30.15;11.90;;;;;;;4.62;100.00;100434.97;7396059;19;20014;-70
2023/12/20 04:15:19;;;;;;;28.58;12.57;;;;;;;4.63;100.00;100423.72;7398659;19;20014;-69
2023/12/20 04:17:47;;;;;;;27.38;11.57;;;;;;;4.64;100.00;100422.84;7398804;19;20027;-70
2023/12/20 04:20:16;;;;;;;23.52;10.73;;;;;;;4.65;100.00;100409.00;7398769;19;20007;-70
2023/12/20 04:22:45;;;;;;;26.85;11.23;;;;;;;4.66;100.00;100410.72;7397722;19;20027;-70
2023/12/20 04:25:16;;;;;;;28.02;11.70;;;;;;;4.66;100.00;100405.53;7396444;19;20015;-70
2023/12/20 04:27:44;;;;;;;27.15;11.23;;;;;;;4.66;100.00;100408.13;7398089;19;20480;-70
2023/12/20 04:30:13;;;;;;;24.90;11.10;;;;;;;4.66;100.00;100397.72;7397063;19;20022;-70
2023/12/20 04:32:42;;;;;;;24.40;9.35;;;;;;;4.65;100.00;100398.59;7397701;19;20015;-70
2023/12/20 04:35:17;;;;;;;22.95;10.35;;;;;;;4.64;100.00;100404.66;7397817;19;20027;-70
2023/12/20 04:37:45;;;;;;;23.00;9.70;;;;;;;4.62;100.00;100400.34;7397819;19;20027;-70
2023/12/20 04:40:16;;;;;;;19.17;9.30;;;;;;;4.61;100.00;100409.84;7397470;19;20015;-70
2023/12/20 04:42:45;;;;;;;20.55;9.40;;;;;;;4.59;100.00;100403.81;7397085;19;20462;-70
2023/12/20 04:45:15;;;;;;;19.35;8.40;;;;;;;4.57;100.00;100408.13;7397819;19;20019;-70
2023/12/20 04:47:46;;;;;;;18.83;8.57;;;;;;;4.53;100.00;100403.81;7397631;19;20488;-70
2023/12/20 04:50:15;;;;;;;20.77;7.43;;;;;;;4.49;100.00;100410.75;7396819;19;20011;-70
2023/12/20 04:52:44;;;;;;;16.02;7.43;;;;;;;4.44;100.00;100407.28;7395427;19;20014;-70
2023/12/20 04:55:15;;;;;;;14.13;6.43;;;;;;;4.40;100.00;100400.38;7397438;19;20015;-70
2023/12/20 04:57:44;;;;;;;18.15;7.03;;;;;;;4.35;100.00;100410.78;7397832;19;20014;-70
2023/12/20 05:00:15;;;;;;;16.10;6.35;;;;;;;4.30;100.00;100411.66;7396724;19;20477;-70
2023/12/20 05:02:44;;;;;;;20.73;10.90;;;;;;;4.22;100.00;100409.03;7395524;19;20011;-69
2023/12/20 05:05:14;;;;;;;18.70;9.23;;;;;;;4.18;100.00;100420.31;7396091;19;20430;-69
2023/12/20 05:07:43;;;;;;;10.38;6.50;;;;;;;4.13;100.00;100412.50;7397161;19;20022;-69
2023/12/20 05:10:12;;;;;;;12.95;6.00;;;;;;;4.08;100.00;100411.66;7394940;19;20015;-69
2023/12/20 05:12:43;;;;;;;12.52;6.55;;;;;;;4.03;100.00;100427.25;7395870;19;20477;-69
2023/12/20 05:15:12;;;;;;;14.07;6.53;;;;;;;4.00;100.00;100416.00;7394682;19;20014;-69
2023/12/20 05:17:40;;;;;;;11.15;6.35;;;;;;;3.95;100.00;100413.41;7396460;19;20014;-69
2023/12/20 05:20:10;;;;;;;15.30;6.10;;;;;;;3.89;100.00;100411.69;7396513;19;20022;-68
2023/12/20 05:22:39;;;;;;;18.65;8.05;;;;;;;3.85;100.00;100417.72;7396114;19;20031;-68
2023/12/20 05:25:08;;;;;;;24.27;10.95;;;;;;;3.80;100.00;100422.03;7394241;19;20481;-68
2023/12/20 05:27:37;;;;;;;38.45;16.17;;;;;;;3.77;100.00;100424.63;7394950;19;20022;-69
2023/12/20 05:30:09;;;;;;;26.95;12.73;;;;;;;3.72;100.00;100428.97;7394315;19;20036;-68
2023/12/20 05:32:38;;;;;;;26.00;9.15;;;;;;;3.69;100.00;100435.00;7395292;19;20497;-69
2023/12/20 05:35:07;;;;;;;16.25;8.77;;;;;;;3.67;100.00;100434.13;7393951;19;20027;-69
2023/12/20 05:37:35;;;;;;;17.00;7.32;;;;;;;3.64;100.00;100433.25;7396121;19;20024;-69
2023/12/20 05:40:04;;;;;;;18.67;7.60;;;;;;;3.61;100.00;100434.13;7395515;19;20010;-68
2023/12/20 05:42:32;;;;;;;16.40;6.90;;;;;;;3.59;100.00;100444.50;7395013;19;20465;-69
2023/12/20 05:45:01;;;;;;;16.85;7.05;;;;;;;3.59;100.00;100449.69;7394334;19;20018;-69
2023/12/20 05:47:32;;;;;;;20.15;6.80;;;;;;;3.57;100.00;100446.22;7394111;19;20477;-69
2023/12/20 05:50:00;;;;;;;21.80;6.40;;;;;;;3.62;100.00;100442.78;7394936;19;20013;-69
2023/12/20 05:52:29;;;;;;;20.33;6.00;;;;;;;3.65;100.00;100447.97;7395044;19;20449;-69
2023/12/20 05:54:57;;;;;;;17.58;5.20;;;;;;;3.67;100.00;100434.13;7395409;19;20019;-69
2023/12/20 05:57:26;;;;;;;17.60;4.75;;;;;;;3.69;100.00;100423.75;7395281;19;20083;-69
2023/12/20 05:59:54;;;;;;;16.35;4.70;;;;;;;3.69;100.00;100437.59;7394460;19;20091;-69
2023/12/20 06:02:23;;;;;;;13.48;4.82;;;;;;;3.69;100.00;100422.03;7393763;19;20018;-68
2023/12/20 06:04:54;;;;;;;15.75;4.82;;;;;;;3.69;100.00;100428.94;7396126;19;20007;-68
2023/12/20 06:07:23;;;;;;;12.80;4.43;;;;;;;3.68;100.00;100433.28;7396736;19;20433;-69
2023/12/20 06:09:51;;;;;;;13.18;4.10;;;;;;;3.66;100.00;100434.13;7393754;19;20014;-69
2023/12/20 06:12:20;;;;;;;13.30;4.00;;;;;;;3.64;100.00;100431.53;7392849;19;20070;-68
2023/12/20 06:14:48;;;;;;;14.10;4.10;;;;;;;3.60;100.00;100422.00;7394268;19;20477;-69
2023/12/20 06:17:16;;;;;;;15.02;3.75;;;;;;;3.56;100.00;100422.88;7394592;19;20078;-70
2023/12/20 06:19:47;;;;;;;15.30;3.63;;;;;;;3.53;100.00;100433.25;7392523;19;20014;-69
2023/12/20 06:22:25;;;;;;;14.90;3.42;;;;;;;3.48;100.00;100435.81;7392106;19;20028;-69
2023/12/20 06:24:54;;;;;;;14.18;3.25;;;;;;;3.44;100.00;100428.91;7391786;19;20101;-68
2023/12/20 06:27:22;;;;;;;10.07;4.03;;;;;;;3.39;100.00;100439.25;7392229;19;20028;-70
2023/12/20 06:29:51;;;;;;;15.70;3.25;;;;;;;3.37;100.00;100437.53;7392414;19;20027;-69
2023/12/20 06:32:19;;;;;;;15.27;3.65;;;;;;;3.33;100.00;100433.19;7391611;19;20015;-69
2023/12/20 06:34:47;;;;;;;14.07;3.88;;;;;;;3.30;100.00;100439.25;7393371;19;20384;-69
2023/12/20 06:37:18;;;;;;;11.63;3.60;;;;;;;3.26;100.00;100440.06;7391924;19;20014;-69
2023/12/20 06:39:47;;;;;;;19.45;3.58;;;;;;;3.24;100.00;100449.59;7391907;19;20010;-68
2023/12/20 06:42:15;;;;;;;18.90;3.97;;;;;;;3.21;100.00;100447.84;7392494;19;20031;-69
2023/12/20 06:44:44;;;;;;;12.38;3.88;;;;;;;3.20;100.00;100447.84;7392846;19;20541;-70
2023/12/20 06:47:14;;;;;;;20.48;4.00;;;;;;;3.19;100.00;100443.53;7391744;19;20015;-69
2023/12/20 06:49:42;;;;;;;12.07;3.83;;;;;;;3.16;100.00;100449.56;7392601;19;20373;-69
2023/12/20 06:52:10;;;;;;;12.38;4.65;;;;;;;3.17;100.00;100440.94;7394003;19;20028;-69
2023/12/20 06:54:41;;;;;;;19.00;4.38;;;;;;;3.15;100.00;100426.22;7390948;19;20019;-70
2023/12/20 06:57:10;;;;;;;14.82;4.22;;;;;;;3.16;100.00;100441.78;7394058;19;20027;-69
2023/12/20 06:59:41;;;;;;;11.80;3.95;;;;;;;3.15;100.00;100439.19;7393863;19;20014;-69
2023/12/20 07:02:11;;;;;;;13.15;4.03;;;;;;;3.17;100.00;100437.47;7393406;19;20070;-69
2023/12/20 07:04:42;;;;;;;16.17;4.38;;;;;;;3.15;100.00;100431.41;7390947;19;20022;-69
2023/12/20 07:07:11;;;;;;;17.88;4.47;;;;;;;3.16;100.00;100434.00;7393918;19;20010;-69
2023/12/20 07:09:42;;;;;;;16.40;3.67;;;;;;;3.18;100.00;100431.41;7392489;19;20024;-69
2023/12/20 07:12:11;;;;;;;14.18;3.65;;;;;;;3.18;100.00;100434.88;7393893;19;20036;-69
2023/12/20 07:14:39;;;;;;;10.15;3.80;;;;;;;3.19;100.00;100434.00;7392172;19;20395;-69
2023/12/20 07:17:11;;;;;;;10.20;3.45;;;;;;;3.22;100.00;100427.97;7400705;19;20030;-70
2023/12/20 07:19:39;;;;;;;10.52;3.75;;;;;;;3.23;100.00;100429.69;7397576;19;20032;-69
2023/12/20 07:22:09;;;;;;;9.70;3.72;;;;;;;3.23;100.00;100425.38;7400097;19;20027;-69
2023/12/20 07:24:37;;;;;;;13.10;4.10;;;;;;;3.26;100.00;100429.69;7397840;19;20015;-69
2023/12/20 07:27:09;;;;;;;12.18;4.63;;;;;;;3.24;100.00;100431.44;7399997;19;20013;-69
2023/12/20 07:29:37;;;;;;;12.20;4.65;;;;;;;3.29;100.00;100436.66;7398405;19;20110;-70
2023/12/20 07:32:06;;;;;;;17.08;5.18;;;;;;;3.29;100.00;100434.06;7399526;19;20011;-69
2023/12/20 07:34:35;;;;;;;11.32;4.38;;;;;;;3.30;100.00;100428.88;7396972;19;20014;-69
2023/12/20 07:37:03;;;;;;;16.65;5.70;;;;;;;3.31;100.00;100428.00;7399789;19;20027;-69
2023/12/20 07:39:32;;;;;;;13.93;3.80;;;;;;;3.32;100.00;100426.28;7398620;19;20502;-69
2023/12/20 07:42:00;;;;;;;11.90;3.90;;;;;;;3.31;100.00;100440.97;7399127;19;20016;-70
2023/12/20 07:44:31;;;;;;;15.10;3.75;;;;;;;3.35;100.00;100429.75;7397061;19;20500;-70
2023/12/20 07:47:01;;;;;;;12.63;3.20;;;;;;;3.36;100.00;100426.31;7399840;19;20438;-70
2023/12/20 07:49:29;;;;;;;8.98;3.42;;;;;;;3.38;100.00;100424.56;7399491;19;20010;-70
2023/12/20 07:51:57;;;;;;;19.05;3.88;;;;;;;3.41;100.00;100422.00;7399311;19;20027;-70
2023/12/20 07:54:26;;;;;;;14.57;4.03;;;;;;;3.43;100.00;100420.25;7397273;19;20078;-70
2023/12/20 07:56:54;;;;;;;13.20;4.20;;;;;;;3.46;100.00;100416.78;7399416;19;20023;-70
2023/12/20 07:59:23;;;;;;;13.25;4.15;;;;;;;3.50;100.00;100422.84;7398342;19;20450;-70
2023/12/20 08:01:54;;;;;;;13.18;3.78;;;;;;;3.53;100.00;100420.28;7396341;19;20014;-70
2023/12/20 08:04:22;;;;;;;13.18;3.80;;;;;;;3.55;100.00;100415.94;7396986;19;20031;-70
2023/12/20 08:06:51;;;;;;;8.93;2.50;;;;;;;3.57;100.00;100415.09;7399037;19;20023;-70
2023/12/20 08:09:19;;;;;;;8.15;2.40;;;;;;;3.58;100.00;100421.16;7398794;19;20427;-70
2023/12/20 08:11:48;;;;;;;8.13;2.38;;;;;;;3.61;100.00;100420.28;7398911;19;20015;-69
2023/12/20 08:14:16;;;;;;;8.65;2.67;;;;;;;3.63;100.00;100424.63;7396240;19;20015;-70
2023/12/20 08:16:45;;;;;;;10.93;2.78;;;;;;;3.66;100.00;100424.59;7398511;19;20014;-70
2023/12/20 08:19:16;;;;;;;10.52;1.92;;;;;;;3.67;100.00;100426.34;7398146;19;20019;-70
2023/12/20 08:21:45;;;;;;;14.00;2.80;;;;;;;3.67;100.00;100418.56;7397459;19;20010;-70
2023/12/20 08:24:13;;;;;;;13.77;3.28;;;;;;;3.66;100.00;100414.22;7396323;19;20035;-70
2023/12/20 08:26:42;;;;;;;14.43;3.20;;;;;;;3.68;100.00;100420.31;7397284;19;20015;-70
2023/12/20 08:29:10;;;;;;;11.10;2.55;;;;;;;3.67;100.00;100415.13;7398160;19;20070;-70
2023/12/20 08:31:39;;;;;;;9.95;3.00;;;;;;;3.66;100.00;100413.38;7396097;19;20070;-69
2023/12/20 08:34:07;;;;;;;15.68;3.50;;;;;;;3.64;100.00;100413.38;7395338;19;20498;-68
2023/12/20 08:36:38;;;;;;;10.63;3.13;;;;;;;3.67;100.00;100418.56;7397547;19;20013;-69
2023/12/20 08:39:08;;;;;;;10.90;3.42;;;;;;;3.70;100.00;100421.19;7398438;19;20014;-69
2023/12/20 08:41:37;;;;;;;14.18;3.88;;;;;;;3.72;100.00;100419.44;7397983;19;20019;-68
2023/12/20 08:44:06;;;;;;;10.40;3.90;;;;;;;3.76;100.00;100417.72;7395928;19;20019;-69
2023/12/20 08:46:35;;;;;;;13.80;4.50;;;;;;;3.79;100.00;100419.44;7397270;19;20543;-68
2023/12/20 08:49:03;;;;;;;14.05;5.05;;;;;;;3.80;100.00;100409.06;7397450;19;20498;-69
2023/12/20 08:51:33;;;;;;;14.57;5.70;;;;;;;3.82;100.00;100402.16;7395665;19;20489;-69
2023/12/20 08:54:07;;;;;;;18.52;6.72;;;;;;;3.82;100.00;100404.75;7395220;19;20473;-68
2023/12/20 08:56:35;;;;;;;;;;;;;;;3.83;100.00;100408.19;7398699;19;20014;-68
2023/12/20 08:59:04;;;;;;;17.42;6.55;;;;;;;3.84;100.00;100408.22;7397470;19;19915;-69
2023/12/20 09:01:32;;;;;;;12.85;6.18;;;;;;;3.84;100.00;100407.34;7397396;19;20039;-69
2023/12/20 09:04:01;;;;;;;22.85;6.75;;;;;;;3.85;100.00;100403.88;7395571;19;20015;-69
2023/12/20 09:06:29;;;;;;;12.88;5.72;;;;;;;3.87;100.00;100413.41;7395156;19;20019;-70
2023/12/20 09:08:58;;;;;;;15.20;5.32;;;;;;;3.90;100.00;100409.94;7396857;19;20105;-68
2023/12/20 09:11:29;;;;;;;17.00;5.65;;;;;;;3.93;100.00;100399.56;7395071;19;20015;-70
2023/12/20 09:13:57;;;;;;;19.80;5.57;;;;;;;3.95;100.00;100392.63;7395302;19;20018;-69
2023/12/20 09:16:26;;;;;;;11.52;4.50;;;;;;;3.98;100.00;100389.16;7396378;19;20599;-69
2023/12/20 09:18:54;;;;;;;11.93;4.47;;;;;;;3.99;100.00;100383.97;7396633;19;20027;-69
2023/12/20 09:21:23;;;;;;;15.63;4.53;;;;;;;4.02;100.00;100386.59;7396563;19;20015;-69
2023/12/20 09:23:51;;;;;;;11.75;3.97;;;;;;;4.05;100.00;100383.97;7394981;19;20014;-69
2023/12/20 09:26:20;;;;;;;13.32;4.25;;;;;;;4.10;100.00;100388.31;7395333;19;20039;-69
2023/12/20 09:28:51;;;;;;;9.23;3.28;;;;;;;4.14;100.00;100390.88;7395433;19;20027;-69
2023/12/20 09:31:27;;;;;;;7.35;3.58;;;;;;;4.19;100.00;100385.69;7394163;19;20085;-69
2023/12/20 09:33:55;;;;;;;12.35;4.72;;;;;;;4.23;100.00;100390.91;7394898;19;20477;-70
2023/12/20 09:36:24;;;;;;;9.02;3.60;;;;;;;4.24;100.00;100378.75;7395707;19;20031;-70
2023/12/20 09:38:52;;;;;;;10.15;3.60;;;;;;;4.31;100.00;100385.69;7395049;19;20398;-70
2023/12/20 09:41:21;;;;;;;6.15;2.85;;;;;;;4.34;100.00;100377.03;7395017;19;20481;-68
2023/12/20 09:43:55;;;;;;;14.35;3.13;;;;;;;4.37;100.00;100371.81;7393739;19;20414;-69
2023/12/20 09:46:27;;;;;;;;;;;;;;;4.40;100.00;100380.47;7396842;19;20011;-70
2023/12/20 09:48:56;;;;;;;11.25;3.15;;;;;;;4.43;100.00;100370.94;7395036;19;19906;-69
2023/12/20 09:51:25;;;;;;;10.73;3.38;;;;;;;4.48;100.00;100382.19;7393989;19;20070;-69
2023/12/20 09:53:57;;;;;;;6.18;2.60;;;;;;;4.52;100.00;100373.50;7394262;19;20018;-70
2023/12/20 09:56:26;;;;;;;8.77;2.75;;;;;;;4.56;100.00;100370.91;7395767;19;20011;-68
2023/12/20 09:58:57;;;;;;;8.05;2.90;;;;;;;4.55;100.00;100361.38;7395047;19;20023;-68
2023/12/20 10:01:26;;;;;;;16.25;3.60;;;;;;;4.61;100.00;100362.22;7394083;19;20070;-67
2023/12/20 10:03:58;;;;;;;10.35;3.63;;;;;;;4.61;100.00;100365.66;7393100;19;20515;-67
2023/12/20 10:06:26;;;;;;;13.77;4.63;;;;;;;4.62;100.00;100351.81;7394916;19;20019;-67
2023/12/20 10:08:56;;;;;;;8.02;4.00;;;;;;;4.64;100.00;100350.09;7394353;19;20018;-67
2023/12/20 10:11:24;;;;;;;11.50;4.38;;;;;;;4.65;100.00;100349.22;7393441;19;20010;-67
2023/12/20 10:13:52;;;;;;;10.63;3.85;;;;;;;4.71;100.00;100357.00;7393871;19;20015;-68
2023/12/20 10:16:27;;;;;;;12.82;3.83;;;;;;;4.75;100.00;100346.56;7392092;19;20017;-68
2023/12/20 10:18:56;;;;;;;12.70;3.72;;;;;;;4.82;100.00;100332.69;7395240;19;20074;-67
2023/12/20 10:21:26;;;;;;;8.65;3.22;;;;;;;4.87;100.00;100325.72;7394069;19;20375;-68
2023/12/20 10:23:54;;;;;;;11.95;3.75;;;;;;;4.96;100.00;100330.88;7394152;19;20015;-67
2023/12/20 10:26:24;;;;;;;11.38;3.00;;;;;;;4.96;100.00;100314.44;7394240;19;20018;-67
2023/12/20 10:28:53;;;;;;;9.52;3.20;;;;;;;5.04;100.00;100312.63;7394260;19;20015;-67
2023/12/20 10:31:42;;;;;;;9.63;2.90;;;;;;;5.06;100.00;100311.75;7391172;19;20367;-67
2023/12/20 10:34:11;;;;;;;7.97;2.33;;;;;;;5.10;100.00;100306.53;7392649;19;20007;-73
2023/12/20 10:36:39;;;;;;;10.02;3.10;;;;;;;5.11;100.00;100303.94;7394090;19;20019;-71
2023/12/20 10:39:11;;;;;;;8.52;2.55;;;;;;;5.13;100.00;100294.38;7394107;19;20105;-70
2023/12/20 10:41:41;;;;;;;10.20;2.97;;;;;;;5.16;100.00;100298.69;7394786;19;20015;-71
2023/12/20 10:44:10;;;;;;;4.72;2.15;;;;;;;5.17;100.00;100288.28;7393185;19;20031;-70
2023/12/20 10:46:49;;;;;;;10.85;3.00;;;;;;;5.21;100.00;100282.19;7395328;19;20418;-71
2023/12/20 10:49:20;;;;;;;10.07;2.28;;;;;;;5.27;100.00;100314.22;7393641;19;20031;-71
2023/12/20 10:51:51;;;;;;;12.38;3.70;;;;;;;5.27;100.00;100283.88;7399173;19;20017;-72
2023/12/20 10:54:26;;;;;;;10.88;2.80;;;;;;;5.32;100.00;100271.72;7398194;19;20485;-70
2023/12/20 10:56:55;;;;;;;8.57;2.50;;;;;;;5.37;100.00;100280.34;7401923;19;20101;-70
2023/12/20 10:59:26;;;;;;;8.65;2.80;;;;;;;5.39;100.00;100275.13;7400651;19;20094;-69
2023/12/20 11:01:59;;;;;;;6.55;2.90;;;;;;;5.42;100.00;100280.31;7400952;19;20022;-70
2023/12/20 11:04:34;;;;;;;10.15;2.42;;;;;;;5.38;100.00;100263.84;7398631;19;20028;-70
2023/12/20 11:07:13;;;;;;;9.68;2.30;;;;;;;5.40;100.00;100266.44;7402002;19;20010;-71
2023/12/20 11:09:50;;;;;;;7.30;2.67;;;;;;;5.40;100.00;100253.44;7399091;19;20011;-70
2023/12/20 11:12:28;;;;;;;9.90;3.50;;;;;;;5.40;100.00;100263.84;7398905;19;20015;-70
2023/12/20 11:15:02;;;;;;;5.97;2.17;;;;;;;5.39;100.00;100265.56;7398026;19;20481;-71
2023/12/20 11:17:34;;;;;;;7.90;2.45;;;;;;;5.38;100.00;100261.25;7400903;19;20025;-70
2023/12/20 11:20:12;;;;;;;4.95;2.28;;;;;;;5.35;100.00;100250.84;7400189;19;20137;-71
2023/12/20 11:22:42;;;;;;;6.82;2.03;;;;;;;5.35;100.00;100243.06;7399681;19;20010;-69
2023/12/20 11:25:17;;;;;;;8.52;2.10;;;;;;;5.35;100.00;100231.81;7400031;19;20473;-70